createdAt,value
2018-03-19T00:00:05.479Z,972.07
2018-03-19T00:01:05.333Z,972.07
2018-03-19T00:02:05.383Z,972.13
2018-03-19T00:03:05.068Z,971.96
2018-03-19T00:04:05.770Z,972.07
2018-03-19T00:05:05.156Z,971.99
2018-03-19T00:06:04.971Z,972.05
2018-03-19T00:07:06.066Z,971.91
2018-03-19T00:08:05.267Z,972.16
2018-03-19T00:09:05.290Z,971.99
2018-03-19T00:10:05.689Z,971.99
2018-03-19T00:11:05.269Z,972.08
2018-03-19T00:12:05.942Z,971.94
2018-03-19T00:13:05.864Z,971.99
2018-03-19T00:14:05.634Z,972.05
2018-03-19T00:15:05.501Z,971.94
2018-03-19T00:16:05.484Z,971.99
2018-03-19T00:17:05.306Z,972.02
2018-03-19T00:18:05.302Z,971.97
2018-03-19T00:19:05.239Z,971.97
2018-03-19T00:20:05.180Z,972.00
2018-03-19T00:21:05.248Z,972.00
2018-03-19T00:22:05.422Z,972.02
2018-03-19T00:23:05.208Z,971.92
2018-03-19T00:24:06.092Z,972.05
2018-03-19T00:25:05.130Z,971.92
2018-03-19T00:26:05.054Z,972.19
2018-03-19T00:27:10.887Z,972.03
2018-03-19T00:28:05.190Z,972.14
2018-03-19T00:29:05.456Z,971.97
2018-03-19T00:30:05.626Z,972.00
2018-03-19T00:31:05.895Z,972.16
2018-03-19T00:32:05.018Z,971.95
2018-03-19T00:33:05.151Z,971.95
2018-03-19T00:34:05.363Z,971.97
2018-03-19T00:35:05.097Z,972.08
2018-03-19T00:36:05.995Z,972.06
2018-03-19T00:37:05.431Z,972.03
2018-03-19T00:38:05.380Z,971.92
2018-03-19T00:39:05.369Z,972.03
2018-03-19T00:40:05.332Z,972.03
2018-03-19T00:41:10.375Z,971.92
2018-03-19T00:42:05.978Z,971.89
2018-03-19T00:43:05.924Z,971.80
2018-03-19T00:44:05.653Z,971.74
2018-03-19T00:45:05.501Z,971.84
2018-03-19T00:46:05.388Z,972.00
2018-03-19T00:47:05.354Z,971.84
2018-03-19T00:48:05.417Z,971.82
2018-03-19T00:49:05.280Z,971.84
2018-03-19T00:50:05.151Z,971.84
2018-03-19T00:51:05.921Z,971.74
2018-03-19T00:52:06.016Z,971.95
2018-03-19T00:53:05.169Z,971.82
2018-03-19T00:54:05.309Z,971.77
2018-03-19T00:55:05.530Z,971.69
2018-03-19T00:56:05.263Z,971.69
2018-03-19T00:57:05.284Z,971.72
2018-03-19T00:58:05.144Z,971.84
2018-03-19T00:59:06.207Z,971.75
2018-03-19T01:00:05.383Z,971.75
2018-03-19T01:01:05.491Z,971.75
2018-03-19T01:02:05.680Z,971.90
2018-03-19T01:03:05.778Z,971.75
2018-03-19T01:04:04.870Z,971.72
2018-03-19T01:05:05.787Z,971.87
2018-03-19T01:06:05.676Z,971.69
2018-03-19T01:07:05.543Z,971.77
2018-03-19T01:08:05.958Z,971.85
2018-03-19T01:09:05.380Z,971.75
2018-03-19T01:10:05.741Z,971.64
2018-03-19T01:11:05.364Z,971.81
2018-03-19T01:12:05.322Z,971.70
2018-03-19T01:13:05.521Z,971.70
2018-03-19T01:14:05.636Z,971.91
2018-03-19T01:15:05.602Z,971.64
2018-03-19T01:16:05.611Z,971.83
2018-03-19T01:17:05.081Z,971.75
2018-03-19T01:18:04.991Z,971.56
2018-03-19T01:19:10.049Z,971.59
2018-03-19T01:20:05.318Z,971.62
2018-03-19T01:21:05.932Z,971.73
2018-03-19T01:22:05.939Z,971.78
2018-03-19T01:23:05.636Z,971.73
2018-03-19T01:24:05.342Z,971.81
2018-03-19T01:25:05.540Z,971.67
2018-03-19T01:26:05.791Z,971.70
2018-03-19T01:27:05.519Z,971.62
2018-03-19T01:28:05.875Z,971.56
2018-03-19T01:29:05.556Z,971.54
2018-03-19T01:30:05.687Z,971.70
2018-03-19T01:31:04.962Z,971.62
2018-03-19T01:32:05.019Z,971.57
2018-03-19T01:33:04.971Z,971.60
2018-03-19T01:34:05.597Z,971.57
2018-03-19T01:35:05.568Z,971.51
2018-03-19T01:36:05.042Z,971.65
2018-03-19T01:37:06.016Z,971.60
2018-03-19T01:38:06.029Z,971.54
2018-03-19T01:39:05.087Z,971.62
2018-03-19T01:40:06.171Z,971.52
2018-03-19T01:41:05.746Z,971.46
2018-03-19T01:42:05.067Z,971.60
2018-03-19T01:43:05.646Z,971.76
2018-03-19T01:44:05.351Z,971.57
2018-03-19T01:45:05.916Z,971.57
2018-03-19T01:46:05.808Z,971.52
2018-03-19T01:47:06.054Z,971.63
2018-03-19T01:48:05.251Z,971.41
2018-03-19T01:49:05.064Z,971.60
2018-03-19T01:50:05.694Z,971.55
2018-03-19T01:51:05.309Z,971.57
2018-03-19T01:52:06.142Z,971.57
2018-03-19T01:53:05.471Z,971.60
2018-03-19T01:54:06.221Z,971.60
2018-03-19T01:55:05.850Z,971.60
2018-03-19T01:56:05.621Z,971.41
2018-03-19T01:57:05.381Z,971.38
2018-03-19T01:58:05.405Z,971.44
2018-03-19T01:59:05.565Z,971.55
2018-03-19T02:00:10.215Z,971.39
2018-03-19T02:01:10.215Z,971.36
2018-03-19T02:02:05.564Z,971.52
2018-03-19T02:03:05.291Z,971.41
2018-03-19T02:04:05.232Z,971.55
2018-03-19T02:05:04.969Z,971.50
2018-03-19T02:06:05.172Z,971.50
2018-03-19T02:07:10.164Z,971.55
2018-03-19T02:08:05.057Z,971.47
2018-03-19T02:09:05.618Z,971.50
2018-03-19T02:10:05.666Z,971.47
2018-03-19T02:11:05.894Z,971.47
2018-03-19T02:12:05.575Z,971.52
2018-03-19T02:13:05.226Z,971.42
2018-03-19T02:14:05.351Z,971.64
2018-03-19T02:15:05.561Z,971.61
2018-03-19T02:16:05.648Z,971.53
2018-03-19T02:17:05.721Z,971.69
2018-03-19T02:18:05.422Z,971.58
2018-03-19T02:19:06.141Z,971.61
2018-03-19T02:20:05.626Z,971.61
2018-03-19T02:21:05.334Z,971.50
2018-03-19T02:22:05.778Z,971.37
2018-03-19T02:23:05.700Z,971.39
2018-03-19T02:24:05.515Z,971.61
2018-03-19T02:25:05.166Z,971.59
2018-03-19T02:26:05.141Z,971.34
2018-03-19T02:27:05.377Z,971.56
2018-03-19T02:28:05.478Z,971.58
2018-03-19T02:29:05.144Z,971.53
2018-03-19T02:30:05.820Z,971.48
2018-03-19T02:31:05.340Z,971.45
2018-03-19T02:32:05.344Z,971.62
2018-03-19T02:33:05.162Z,971.51
2018-03-19T02:34:05.115Z,971.53
2018-03-19T02:35:05.465Z,971.42
2018-03-19T02:36:05.082Z,971.43
2018-03-19T02:37:05.865Z,971.48
2018-03-19T02:38:05.940Z,971.45
2018-03-19T02:39:05.916Z,971.37
2018-03-19T02:40:05.346Z,971.54
2018-03-19T02:41:05.948Z,971.54
2018-03-19T02:42:05.778Z,971.45
2018-03-19T02:43:05.469Z,971.54
2018-03-19T02:44:05.377Z,971.48
2018-03-19T02:45:05.486Z,971.48
2018-03-19T02:46:05.603Z,971.48
2018-03-19T02:47:05.764Z,971.46
2018-03-19T02:48:05.016Z,971.40
2018-03-19T02:49:06.760Z,971.35
2018-03-19T02:50:05.613Z,971.46
2018-03-19T02:51:05.097Z,971.51
2018-03-19T02:52:05.331Z,971.32
2018-03-19T02:53:05.168Z,971.46
2018-03-19T02:54:05.153Z,971.46
2018-03-19T02:55:05.152Z,971.43
2018-03-19T02:56:05.889Z,971.35
2018-03-19T02:57:06.434Z,971.38
2018-03-19T02:58:05.778Z,971.46
2018-03-19T02:59:05.195Z,971.38
2018-03-19T03:00:05.088Z,971.38
2018-03-19T03:01:05.724Z,971.52
2018-03-19T03:02:05.696Z,971.49
2018-03-19T03:03:05.391Z,971.46
2018-03-19T03:04:05.968Z,971.49
2018-03-19T03:05:05.605Z,971.57
2018-03-19T03:06:10.105Z,971.47
2018-03-19T03:07:05.492Z,971.58
2018-03-19T03:08:05.344Z,971.52
2018-03-19T03:09:05.179Z,971.55
2018-03-19T03:10:05.308Z,971.55
2018-03-19T03:11:05.233Z,971.41
2018-03-19T03:12:05.325Z,971.58
2018-03-19T03:13:11.154Z,971.36
2018-03-19T03:14:05.208Z,971.50
2018-03-19T03:15:05.040Z,971.55
2018-03-19T03:16:05.772Z,971.58
2018-03-19T03:17:05.241Z,971.77
2018-03-19T03:18:05.319Z,971.63
2018-03-19T03:19:05.918Z,971.72
2018-03-19T03:20:05.239Z,971.69
2018-03-19T03:21:05.436Z,971.58
2018-03-19T03:22:05.657Z,971.61
2018-03-19T03:23:05.756Z,971.61
2018-03-19T03:24:05.403Z,971.61
2018-03-19T03:25:06.075Z,971.72
2018-03-19T03:26:05.427Z,971.67
2018-03-19T03:27:05.501Z,971.56
2018-03-19T03:28:05.759Z,971.53
2018-03-19T03:29:05.520Z,971.69
2018-03-19T03:30:05.389Z,971.64
2018-03-19T03:31:11.979Z,971.53
2018-03-19T03:32:05.919Z,971.67
2018-03-19T03:33:05.581Z,971.64
2018-03-19T03:34:05.535Z,971.67
2018-03-19T03:35:05.952Z,971.67
2018-03-19T03:36:05.494Z,971.64
2018-03-19T03:37:05.984Z,971.56
2018-03-19T03:38:05.963Z,971.59
2018-03-19T03:39:05.105Z,971.59
2018-03-19T03:40:06.235Z,971.51
2018-03-19T03:41:05.726Z,971.62
2018-03-19T03:42:05.912Z,971.65
2018-03-19T03:43:05.682Z,971.57
2018-03-19T03:44:05.710Z,971.57
2018-03-19T03:45:05.268Z,971.54
2018-03-19T03:46:05.970Z,971.51
2018-03-19T03:47:05.604Z,971.62
2018-03-19T03:48:05.553Z,971.68
2018-03-19T03:49:05.193Z,971.81
2018-03-19T03:50:05.733Z,971.73
2018-03-19T03:51:05.301Z,971.70
2018-03-19T03:52:05.333Z,971.71
2018-03-19T03:53:05.162Z,971.68
2018-03-19T03:54:06.004Z,971.62
2018-03-19T03:55:05.073Z,971.71
2018-03-19T03:56:05.047Z,971.63
2018-03-19T03:57:05.315Z,971.63
2018-03-19T03:58:05.607Z,971.52
2018-03-19T03:59:06.201Z,971.60
2018-03-19T04:00:05.121Z,971.52
2018-03-19T04:01:05.489Z,971.74
2018-03-19T04:02:05.028Z,971.68
2018-03-19T04:03:05.110Z,971.68
2018-03-19T04:04:05.267Z,971.71
2018-03-19T04:05:05.775Z,971.63
2018-03-19T04:06:05.687Z,971.74
2018-03-19T04:07:05.229Z,971.55
2018-03-19T04:08:05.008Z,971.80
2018-03-19T04:09:05.861Z,971.63
2018-03-19T04:10:05.424Z,971.66
2018-03-19T04:11:05.946Z,971.66
2018-03-19T04:12:05.593Z,971.77
2018-03-19T04:13:05.219Z,971.93
2018-03-19T04:14:05.813Z,971.72
2018-03-19T04:15:05.552Z,971.72
2018-03-19T04:16:04.973Z,971.77
2018-03-19T04:17:05.930Z,971.77
2018-03-19T04:18:04.986Z,971.64
2018-03-19T04:19:05.869Z,971.61
2018-03-19T04:20:05.219Z,971.64
2018-03-19T04:21:05.682Z,971.72
2018-03-19T04:22:10.513Z,971.72
2018-03-19T04:23:05.272Z,971.70
2018-03-19T04:24:04.928Z,971.67
2018-03-19T04:25:05.985Z,971.62
2018-03-19T04:26:06.189Z,971.67
2018-03-19T04:27:05.858Z,971.73
2018-03-19T04:28:05.788Z,971.78
2018-03-19T04:29:05.749Z,971.75
2018-03-19T04:30:05.827Z,971.64
2018-03-19T04:31:05.480Z,971.81
2018-03-19T04:32:05.482Z,971.91
2018-03-19T04:33:05.037Z,971.83
2018-03-19T04:34:05.346Z,971.78
2018-03-19T04:35:05.454Z,971.81
2018-03-19T04:36:05.500Z,971.54
2018-03-19T04:37:05.489Z,971.68
2018-03-19T04:38:05.187Z,971.73
2018-03-19T04:39:05.475Z,971.86
2018-03-19T04:40:05.627Z,971.79
2018-03-19T04:41:05.387Z,971.86
2018-03-19T04:42:04.945Z,971.71
2018-03-19T04:43:05.415Z,971.74
2018-03-19T04:44:07.000Z,971.71
2018-03-19T04:45:05.365Z,971.77
2018-03-19T04:46:05.288Z,971.84
2018-03-19T04:47:05.183Z,971.74
2018-03-19T04:48:05.558Z,971.87
2018-03-19T04:49:05.715Z,971.79
2018-03-19T04:50:05.906Z,971.77
2018-03-19T04:51:05.576Z,971.82
2018-03-19T04:52:05.719Z,971.95
2018-03-19T04:53:05.637Z,971.80
2018-03-19T04:54:05.768Z,971.95
2018-03-19T04:55:05.556Z,971.66
2018-03-19T04:56:05.355Z,971.90
2018-03-19T04:57:05.241Z,971.83
2018-03-19T04:58:05.250Z,971.77
2018-03-19T04:59:05.188Z,971.80
2018-03-19T05:00:05.127Z,971.90
2018-03-19T05:01:05.612Z,971.85
2018-03-19T05:02:05.608Z,971.87
2018-03-19T05:03:05.345Z,972.04
2018-03-19T05:04:05.707Z,971.80
2018-03-19T05:05:10.023Z,971.90
2018-03-19T05:06:06.163Z,971.85
2018-03-19T05:07:05.326Z,971.88
2018-03-19T05:08:05.945Z,972.07
2018-03-19T05:09:05.709Z,971.81
2018-03-19T05:10:05.813Z,971.91
2018-03-19T05:11:05.514Z,971.83
2018-03-19T05:12:06.363Z,971.88
2018-03-19T05:13:05.374Z,971.88
2018-03-19T05:14:05.409Z,971.85
2018-03-19T05:15:05.101Z,972.05
2018-03-19T05:16:05.683Z,971.94
2018-03-19T05:17:05.203Z,971.83
2018-03-19T05:18:05.438Z,971.83
2018-03-19T05:19:05.380Z,971.88
2018-03-19T05:20:05.872Z,971.83
2018-03-19T05:21:05.469Z,971.91
2018-03-19T05:22:05.256Z,971.99
2018-03-19T05:23:05.917Z,971.96
2018-03-19T05:24:06.018Z,971.99
2018-03-19T05:25:06.672Z,972.13
2018-03-19T05:26:05.377Z,971.99
2018-03-19T05:27:10.323Z,972.10
2018-03-19T05:28:05.566Z,971.91
2018-03-19T05:29:05.538Z,971.88
2018-03-19T05:30:05.363Z,971.88
2018-03-19T05:31:06.031Z,971.83
2018-03-19T05:32:05.375Z,971.96
2018-03-19T05:33:05.421Z,971.96
2018-03-19T05:34:05.429Z,972.01
2018-03-19T05:35:06.519Z,972.09
2018-03-19T05:36:05.761Z,971.96
2018-03-19T05:37:05.893Z,972.04
2018-03-19T05:38:05.926Z,971.90
2018-03-19T05:39:05.683Z,972.07
2018-03-19T05:40:06.468Z,971.90
2018-03-19T05:41:05.528Z,971.90
2018-03-19T05:42:06.281Z,972.20
2018-03-19T05:43:05.388Z,971.87
2018-03-19T05:44:05.266Z,971.96
2018-03-19T05:45:05.642Z,972.06
2018-03-19T05:46:05.529Z,971.98
2018-03-19T05:47:05.615Z,972.06
2018-03-19T05:48:05.847Z,972.14
2018-03-19T05:49:06.019Z,972.06
2018-03-19T05:50:05.639Z,972.12
2018-03-19T05:51:05.639Z,972.09
2018-03-19T05:52:05.292Z,972.03
2018-03-19T05:53:05.086Z,971.97
2018-03-19T05:54:05.943Z,972.00
2018-03-19T05:55:05.526Z,971.94
2018-03-19T05:56:05.888Z,972.04
2018-03-19T05:57:05.250Z,972.08
2018-03-19T05:58:05.881Z,972.08
2018-03-19T05:59:05.833Z,972.12
2018-03-19T06:00:05.714Z,972.11
2018-03-19T06:01:05.493Z,972.08
2018-03-19T06:02:05.841Z,972.09
2018-03-19T06:03:05.872Z,972.14
2018-03-19T06:04:05.830Z,972.21
2018-03-19T06:05:05.248Z,972.18
2018-03-19T06:06:05.412Z,972.25
2018-03-19T06:07:05.612Z,972.11
2018-03-19T06:08:05.594Z,972.26
2018-03-19T06:09:10.722Z,972.15
2018-03-19T06:10:05.969Z,972.30
2018-03-19T06:11:05.208Z,972.22
2018-03-19T06:12:06.802Z,972.29
2018-03-19T06:13:05.372Z,972.34
2018-03-19T06:14:05.264Z,972.31
2018-03-19T06:15:05.013Z,972.14
2018-03-19T06:16:05.592Z,972.24
2018-03-19T06:17:05.586Z,972.40
2018-03-19T06:18:05.228Z,972.34
2018-03-19T06:19:05.208Z,972.28
2018-03-19T06:20:05.470Z,972.36
2018-03-19T06:21:05.540Z,972.27
2018-03-19T06:22:05.587Z,972.32
2018-03-19T06:23:05.953Z,972.35
2018-03-19T06:24:05.114Z,972.40
2018-03-19T06:25:05.512Z,972.32
2018-03-19T06:26:05.197Z,972.37
2018-03-19T06:27:05.787Z,972.40
2018-03-19T06:28:06.006Z,972.23
2018-03-19T06:29:05.776Z,972.25
2018-03-19T06:30:05.420Z,972.31
2018-03-19T06:31:05.065Z,972.54
2018-03-19T06:32:05.720Z,972.30
2018-03-19T06:33:07.026Z,972.27
2018-03-19T06:34:05.637Z,972.16
2018-03-19T06:35:05.191Z,972.32
2018-03-19T06:36:05.903Z,972.30
2018-03-19T06:37:05.530Z,972.16
2018-03-19T06:38:05.367Z,972.18
2018-03-19T06:39:06.806Z,972.26
2018-03-19T06:40:05.545Z,972.31
2018-03-19T06:41:05.888Z,972.31
2018-03-19T06:42:05.118Z,972.42
2018-03-19T06:43:05.693Z,972.30
2018-03-19T06:44:05.124Z,972.44
2018-03-19T06:45:05.134Z,972.41
2018-03-19T06:46:05.588Z,972.38
2018-03-19T06:47:07.645Z,972.24
2018-03-19T06:48:05.642Z,972.32
2018-03-19T06:49:05.777Z,972.29
2018-03-19T06:50:06.046Z,972.40
2018-03-19T06:51:05.800Z,972.45
2018-03-19T06:52:05.777Z,972.48
2018-03-19T06:53:10.407Z,972.40
2018-03-19T06:54:05.379Z,972.29
2018-03-19T06:55:05.674Z,972.47
2018-03-19T06:56:05.206Z,972.36
2018-03-19T06:57:05.313Z,972.44
2018-03-19T06:58:05.476Z,972.39
2018-03-19T06:59:05.623Z,972.44
2018-03-19T07:00:05.453Z,972.44
2018-03-19T07:01:05.840Z,972.36
2018-03-19T07:02:05.695Z,972.28
2018-03-19T07:03:06.124Z,972.28
2018-03-19T07:04:05.240Z,972.30
2018-03-19T07:05:10.226Z,972.41
2018-03-19T07:06:05.200Z,972.44
2018-03-19T07:07:05.009Z,972.56
2018-03-19T07:08:05.414Z,972.56
2018-03-19T07:09:05.337Z,972.48
2018-03-19T07:10:05.361Z,972.62
2018-03-19T07:11:05.390Z,972.48
2018-03-19T07:12:05.132Z,972.58
2018-03-19T07:13:05.052Z,972.48
2018-03-19T07:14:05.931Z,972.46
2018-03-19T07:15:11.766Z,972.56
2018-03-19T07:16:05.064Z,972.53
2018-03-19T07:17:05.596Z,972.40
2018-03-19T07:18:05.509Z,972.64
2018-03-19T07:19:05.545Z,972.53
2018-03-19T07:20:05.284Z,972.58
2018-03-19T07:21:04.935Z,972.45
2018-03-19T07:22:05.138Z,972.48
2018-03-19T07:23:10.274Z,972.42
2018-03-19T07:24:05.626Z,972.42
2018-03-19T07:25:05.045Z,972.66
2018-03-19T07:26:05.701Z,972.45
2018-03-19T07:27:05.726Z,972.45
2018-03-19T07:28:05.486Z,972.66
2018-03-19T07:29:05.503Z,972.57
2018-03-19T07:30:05.363Z,972.57
2018-03-19T07:31:06.208Z,972.47
2018-03-19T07:32:05.172Z,972.68
2018-03-19T07:33:05.112Z,972.68
2018-03-19T07:34:05.087Z,972.57
2018-03-19T07:35:04.996Z,972.52
2018-03-19T07:36:05.964Z,972.54
2018-03-19T07:37:05.250Z,972.52
2018-03-19T07:38:05.350Z,972.74
2018-03-19T07:39:05.506Z,972.54
2018-03-19T07:40:05.661Z,972.57
2018-03-19T07:41:05.795Z,972.60
2018-03-19T07:42:05.568Z,972.65
2018-03-19T07:43:05.965Z,972.60
2018-03-19T07:44:05.529Z,972.57
2018-03-19T07:45:05.319Z,972.73
2018-03-19T07:46:05.293Z,972.68
2018-03-19T07:47:05.691Z,972.73
2018-03-19T07:48:05.295Z,972.71
2018-03-19T07:49:05.046Z,972.60
2018-03-19T07:50:06.061Z,972.68
2018-03-19T07:51:05.635Z,972.71
2018-03-19T07:52:05.327Z,972.65
2018-03-19T07:53:07.570Z,972.62
2018-03-19T07:54:05.115Z,972.62
2018-03-19T07:55:05.241Z,972.57
2018-03-19T07:56:05.993Z,972.81
2018-03-19T07:57:05.701Z,972.70
2018-03-19T07:58:05.906Z,972.65
2018-03-19T07:59:05.394Z,972.73
2018-03-19T08:00:05.815Z,972.62
2018-03-19T08:01:05.877Z,972.73
2018-03-19T08:02:05.661Z,972.61
2018-03-19T08:03:05.476Z,972.72
2018-03-19T08:04:05.955Z,972.97
2018-03-19T08:05:05.558Z,972.74
2018-03-19T08:06:05.475Z,972.80
2018-03-19T08:07:05.311Z,972.93
2018-03-19T08:08:05.900Z,972.85
2018-03-19T08:09:10.837Z,972.66
2018-03-19T08:10:05.773Z,972.71
2018-03-19T08:11:05.834Z,972.74
2018-03-19T08:12:10.549Z,972.77
2018-03-19T08:13:05.783Z,972.75
2018-03-19T08:14:05.644Z,972.66
2018-03-19T08:15:05.490Z,972.72
2018-03-19T08:16:05.290Z,972.72
2018-03-19T08:17:05.504Z,972.58
2018-03-19T08:18:05.156Z,972.72
2018-03-19T08:19:05.858Z,972.74
2018-03-19T08:20:05.893Z,972.69
2018-03-19T08:21:10.254Z,972.69
2018-03-19T08:22:05.983Z,972.63
2018-03-19T08:23:05.742Z,972.94
2018-03-19T08:24:06.015Z,972.66
2018-03-19T08:25:05.549Z,972.69
2018-03-19T08:26:10.695Z,972.66
2018-03-19T08:27:05.114Z,972.69
2018-03-19T08:28:05.602Z,972.69
2018-03-19T08:29:05.290Z,972.80
2018-03-19T08:30:05.627Z,972.72
2018-03-19T08:31:05.549Z,972.63
2018-03-19T08:32:05.629Z,972.71
2018-03-19T08:33:05.158Z,972.71
2018-03-19T08:34:06.009Z,972.66
2018-03-19T08:35:05.535Z,972.74
2018-03-19T08:36:05.363Z,972.74
2018-03-19T08:37:05.659Z,972.52
2018-03-19T08:38:05.854Z,972.57
2018-03-19T08:39:05.692Z,972.54
2018-03-19T08:40:05.794Z,972.62
2018-03-19T08:41:06.080Z,972.76
2018-03-19T08:42:05.411Z,972.67
2018-03-19T08:43:05.707Z,972.59
2018-03-19T08:44:10.797Z,972.65
2018-03-19T08:45:05.639Z,972.49
2018-03-19T08:46:05.476Z,972.48
2018-03-19T08:47:05.271Z,972.70
2018-03-19T08:48:05.121Z,972.64
2018-03-19T08:49:06.514Z,972.59
2018-03-19T08:50:05.877Z,972.61
2018-03-19T08:51:05.521Z,972.61
2018-03-19T08:52:05.902Z,972.48
2018-03-19T08:53:05.005Z,972.61
2018-03-19T08:54:05.388Z,972.59
2018-03-19T08:55:05.291Z,972.61
2018-03-19T08:56:05.838Z,972.49
2018-03-19T08:57:05.190Z,972.49
2018-03-19T08:58:05.390Z,972.43
2018-03-19T08:59:05.773Z,972.49
2018-03-19T09:00:06.053Z,972.49
2018-03-19T09:01:05.774Z,972.29
2018-03-19T09:02:05.082Z,972.43
2018-03-19T09:03:05.393Z,972.57
2018-03-19T09:04:05.284Z,972.43
2018-03-19T09:05:05.547Z,972.54
2018-03-19T09:06:05.554Z,972.56
2018-03-19T09:07:05.152Z,972.57
2018-03-19T09:08:05.804Z,972.57
2018-03-19T09:09:05.420Z,972.63
2018-03-19T09:10:06.303Z,972.54
2018-03-19T09:11:05.334Z,972.55
2018-03-19T09:12:06.051Z,972.52
2018-03-19T09:13:05.621Z,972.44
2018-03-19T09:14:05.959Z,972.42
2018-03-19T09:15:05.047Z,972.52
2018-03-19T09:16:05.003Z,972.42
2018-03-19T09:17:05.108Z,972.45
2018-03-19T09:18:05.045Z,972.42
2018-03-19T09:19:05.771Z,972.33
2018-03-19T09:20:05.983Z,972.55
2018-03-19T09:21:07.115Z,972.45
2018-03-19T09:22:05.440Z,972.39
2018-03-19T09:23:05.422Z,972.36
2018-03-19T09:24:05.324Z,972.57
2018-03-19T09:25:05.175Z,972.57
2018-03-19T09:26:05.079Z,972.33
2018-03-19T09:27:05.712Z,972.33
2018-03-19T09:28:05.414Z,972.30
2018-03-19T09:29:05.212Z,972.30
2018-03-19T09:30:05.955Z,972.43
2018-03-19T09:31:05.938Z,972.32
2018-03-19T09:32:05.774Z,972.46
2018-03-19T09:33:05.938Z,972.35
2018-03-19T09:34:05.219Z,972.29
2018-03-19T09:35:05.160Z,972.15
2018-03-19T09:36:06.193Z,972.29
2018-03-19T09:37:05.700Z,972.35
2018-03-19T09:38:05.596Z,972.32
2018-03-19T09:39:05.430Z,972.29
2018-03-19T09:40:05.348Z,972.21
2018-03-19T09:41:09.984Z,972.35
2018-03-19T09:42:10.159Z,972.26
2018-03-19T09:43:05.130Z,972.37
2018-03-19T09:44:05.976Z,972.48
2018-03-19T09:45:05.617Z,972.40
2018-03-19T09:46:05.453Z,972.43
2018-03-19T09:47:05.485Z,972.40
2018-03-19T09:48:10.057Z,972.45
2018-03-19T09:49:05.356Z,972.31
2018-03-19T09:50:05.738Z,972.37
2018-03-19T09:51:05.862Z,972.45
2018-03-19T09:52:05.938Z,972.34
2018-03-19T09:53:05.830Z,972.48
2018-03-19T09:54:05.420Z,972.34
2018-03-19T09:55:05.418Z,972.55
2018-03-19T09:56:05.336Z,972.42
2018-03-19T09:57:05.129Z,972.42
2018-03-19T09:58:05.070Z,972.61
2018-03-19T09:59:05.098Z,972.61
2018-03-19T10:00:05.034Z,972.61
2018-03-19T10:01:05.255Z,972.64
2018-03-19T10:02:05.388Z,972.55
2018-03-19T10:03:05.143Z,972.58
2018-03-19T10:04:06.032Z,972.58
2018-03-19T10:05:05.912Z,972.42
2018-03-19T10:06:05.548Z,972.61
2018-03-19T10:07:05.517Z,972.55
2018-03-19T10:08:05.636Z,972.61
2018-03-19T10:09:05.048Z,972.55
2018-03-19T10:10:05.946Z,972.55
2018-03-19T10:11:05.324Z,972.42
2018-03-19T10:12:05.815Z,972.58
2018-03-19T10:13:05.391Z,972.63
2018-03-19T10:14:05.806Z,972.42
2018-03-19T10:15:05.494Z,972.55
2018-03-19T10:16:05.520Z,972.31
2018-03-19T10:17:05.195Z,972.42
2018-03-19T10:18:05.899Z,972.44
2018-03-19T10:19:05.573Z,972.44
2018-03-19T10:20:05.714Z,972.52
2018-03-19T10:21:05.422Z,972.36
2018-03-19T10:22:05.204Z,972.35
2018-03-19T10:23:05.250Z,972.43
2018-03-19T10:24:05.628Z,972.48
2018-03-19T10:25:10.439Z,972.45
2018-03-19T10:26:05.579Z,972.26
2018-03-19T10:27:05.386Z,972.37
2018-03-19T10:28:05.906Z,972.42
2018-03-19T10:29:05.729Z,972.37
2018-03-19T10:30:05.663Z,972.45
2018-03-19T10:31:05.720Z,972.53
2018-03-19T10:32:05.593Z,972.42
2018-03-19T10:33:05.711Z,972.48
2018-03-19T10:34:05.420Z,972.37
2018-03-19T10:35:05.800Z,972.43
2018-03-19T10:36:05.371Z,972.29
2018-03-19T10:37:05.520Z,972.46
2018-03-19T10:38:05.690Z,972.49
2018-03-19T10:39:05.831Z,972.54
2018-03-19T10:40:05.887Z,972.57
2018-03-19T10:41:05.306Z,972.30
2018-03-19T10:42:10.996Z,972.41
2018-03-19T10:43:05.402Z,972.41
2018-03-19T10:44:05.592Z,972.49
2018-03-19T10:45:05.454Z,972.53
2018-03-19T10:46:05.151Z,972.56
2018-03-19T10:47:05.048Z,972.59
2018-03-19T10:48:05.808Z,972.43
2018-03-19T10:49:05.246Z,972.46
2018-03-19T10:50:05.080Z,972.32
2018-03-19T10:51:05.726Z,972.46
2018-03-19T10:52:05.550Z,972.40
2018-03-19T10:53:05.713Z,972.43
2018-03-19T10:54:05.111Z,972.45
2018-03-19T10:55:06.158Z,972.56
2018-03-19T10:56:05.466Z,972.40
2018-03-19T10:57:05.966Z,972.37
2018-03-19T10:58:05.737Z,972.45
2018-03-19T10:59:05.557Z,972.55
2018-03-19T11:00:05.299Z,972.48
2018-03-19T11:01:05.189Z,972.45
2018-03-19T11:02:05.834Z,972.42
2018-03-19T11:03:05.177Z,972.37
2018-03-19T11:04:05.029Z,972.42
2018-03-19T11:05:05.180Z,972.58
2018-03-19T11:06:05.853Z,972.36
2018-03-19T11:07:06.162Z,972.39
2018-03-19T11:08:05.940Z,972.28
2018-03-19T11:09:05.828Z,972.28
2018-03-19T11:10:05.443Z,972.27
2018-03-19T11:11:05.941Z,972.35
2018-03-19T11:12:06.180Z,972.27
2018-03-19T11:13:05.755Z,972.35
2018-03-19T11:14:05.188Z,972.30
2018-03-19T11:15:05.245Z,972.57
2018-03-19T11:16:04.943Z,972.27
2018-03-19T11:17:05.402Z,972.44
2018-03-19T11:18:05.729Z,972.33
2018-03-19T11:19:05.309Z,972.27
2018-03-19T11:20:06.082Z,972.44
2018-03-19T11:21:06.009Z,972.44
2018-03-19T11:22:06.939Z,972.36
2018-03-19T11:23:05.308Z,972.19
2018-03-19T11:24:05.330Z,972.33
2018-03-19T11:25:05.268Z,972.27
2018-03-19T11:26:05.183Z,972.36
2018-03-19T11:27:05.730Z,972.35
2018-03-19T11:28:05.280Z,972.19
2018-03-19T11:29:05.947Z,972.28
2018-03-19T11:30:05.821Z,972.14
2018-03-19T11:31:05.398Z,972.33
2018-03-19T11:32:05.338Z,972.36
2018-03-19T11:33:05.087Z,972.25
2018-03-19T11:34:05.488Z,972.28
2018-03-19T11:35:05.166Z,972.25
2018-03-19T11:36:05.830Z,972.30
2018-03-19T11:37:05.764Z,972.33
2018-03-19T11:38:05.805Z,972.06
2018-03-19T11:39:05.409Z,972.22
2018-03-19T11:40:04.973Z,972.19
2018-03-19T11:41:05.266Z,972.14
2018-03-19T11:42:05.019Z,972.22
2018-03-19T11:43:06.148Z,972.25
2018-03-19T11:44:05.549Z,972.22
2018-03-19T11:45:05.849Z,972.05
2018-03-19T11:46:05.706Z,971.97
2018-03-19T11:47:05.663Z,972.25
2018-03-19T11:48:05.286Z,972.22
2018-03-19T11:49:05.168Z,972.38
2018-03-19T11:50:05.766Z,972.22
2018-03-19T11:51:05.869Z,972.11
2018-03-19T11:52:05.692Z,972.22
2018-03-19T11:53:04.988Z,972.27
2018-03-19T11:54:05.763Z,972.27
2018-03-19T11:55:05.241Z,972.16
2018-03-19T11:56:05.637Z,972.24
2018-03-19T11:57:05.762Z,972.13
2018-03-19T11:58:06.066Z,972.33
2018-03-19T11:59:05.697Z,972.22
2018-03-19T12:00:05.554Z,972.02
2018-03-19T12:01:05.572Z,972.36
2018-03-19T12:02:05.593Z,972.11
2018-03-19T12:03:05.648Z,972.00
2018-03-19T12:04:05.838Z,972.14
2018-03-19T12:05:06.150Z,972.19
2018-03-19T12:06:05.582Z,972.30
2018-03-19T12:07:05.211Z,972.11
2018-03-19T12:08:05.729Z,972.05
2018-03-19T12:09:05.615Z,972.19
2018-03-19T12:10:05.212Z,972.05
2018-03-19T12:11:05.273Z,972.07
2018-03-19T12:12:05.060Z,972.13
2018-03-19T12:13:05.791Z,972.10
2018-03-19T12:14:05.758Z,972.21
2018-03-19T12:15:05.487Z,972.32
2018-03-19T12:16:04.950Z,972.01
2018-03-19T12:17:05.553Z,972.09
2018-03-19T12:18:05.477Z,972.04
2018-03-19T12:19:05.120Z,972.15
2018-03-19T12:20:05.279Z,972.15
2018-03-19T12:21:05.101Z,972.18
2018-03-19T12:22:05.814Z,972.18
2018-03-19T12:23:05.700Z,972.18
2018-03-19T12:24:05.824Z,972.15
2018-03-19T12:25:05.529Z,972.15
2018-03-19T12:26:05.256Z,972.29
2018-03-19T12:27:05.926Z,972.12
2018-03-19T12:28:05.035Z,972.20